createdAt,value
2022-12-31T00:02:38.529Z,1.17
2022-12-31T00:05:27.145Z,1.00
2022-12-31T00:08:15.626Z,1.00
2022-12-31T00:11:04.091Z,1.23
2022-12-31T00:13:53.228Z,1.30
2022-12-31T00:16:43.606Z,1.13
2022-12-31T00:19:32.095Z,0.93
2022-12-31T00:22:20.556Z,1.20
2022-12-31T00:25:10.025Z,1.10
2022-12-31T00:27:58.441Z,1.20
2022-12-31T00:30:47.024Z,1.10
2022-12-31T00:33:37.104Z,1.10
2022-12-31T00:36:29.123Z,1.10
2022-12-31T00:39:17.611Z,1.30
2022-12-31T00:42:06.188Z,1.20
2022-12-31T00:44:54.612Z,1.10
2022-12-31T00:47:43.140Z,1.10
2022-12-31T00:50:32.934Z,1.40
2022-12-31T00:53:21.527Z,1.30
2022-12-31T00:56:12.571Z,1.30
2022-12-31T00:59:01.320Z,1.27
2022-12-31T01:01:50.484Z,1.40
2022-12-31T01:04:39.008Z,1.20
2022-12-31T01:07:28.770Z,1.60
2022-12-31T01:10:37.278Z,1.30
2022-12-31T01:13:25.791Z,1.10
2022-12-31T01:16:15.224Z,1.40
2022-12-31T01:19:06.042Z,1.40
2022-12-31T01:21:55.177Z,1.37
2022-12-31T01:24:45.008Z,1.40
2022-12-31T01:27:33.429Z,1.40
2022-12-31T01:30:21.873Z,1.47
2022-12-31T01:33:10.252Z,1.30
2022-12-31T01:36:02.821Z,1.10
2022-12-31T01:38:51.625Z,1.20
2022-12-31T01:41:44.158Z,1.10
2022-12-31T01:44:59.984Z,1.40
2022-12-31T01:47:50.922Z,1.27
2022-12-31T01:50:41.083Z,1.07
2022-12-31T01:53:29.728Z,1.37
2022-12-31T01:56:19.449Z,1.47
2022-12-31T01:59:10.825Z,1.20
2022-12-31T02:02:00.506Z,1.40
2022-12-31T02:04:49.825Z,1.20
2022-12-31T02:07:38.324Z,1.50
2022-12-31T02:10:26.930Z,1.20
2022-12-31T02:13:16.092Z,1.40
2022-12-31T02:16:10.276Z,1.20
2022-12-31T02:19:03.297Z,1.40
2022-12-31T02:21:59.040Z,1.23
2022-12-31T02:25:16.644Z,1.30
2022-12-31T02:28:17.921Z,1.10
2022-12-31T02:31:10.423Z,1.40
2022-12-31T02:34:02.531Z,1.33
2022-12-31T02:36:51.756Z,1.70
2022-12-31T02:39:40.813Z,1.50
2022-12-31T02:42:29.380Z,1.23
2022-12-31T02:45:25.672Z,1.30
2022-12-31T02:48:32.956Z,1.20
2022-12-31T02:51:34.876Z,1.10
2022-12-31T02:54:29.970Z,1.33
2022-12-31T02:57:22.275Z,1.40
2022-12-31T03:00:35.947Z,1.10
2022-12-31T03:03:26.798Z,1.40
2022-12-31T03:06:15.394Z,1.20
2022-12-31T03:09:15.896Z,1.20
2022-12-31T03:12:23.417Z,1.30
2022-12-31T03:15:20.692Z,1.03
2022-12-31T03:18:10.589Z,1.10
2022-12-31T03:21:17.789Z,1.10
2022-12-31T03:24:24.515Z,1.50
2022-12-31T03:27:12.987Z,1.23
2022-12-31T03:30:01.445Z,1.30
2022-12-31T03:32:50.115Z,1.60
2022-12-31T03:35:39.891Z,1.17
2022-12-31T03:38:29.736Z,1.27
2022-12-31T03:41:18.281Z,1.10
2022-12-31T03:44:06.828Z,1.20
2022-12-31T03:46:55.294Z,1.20
2022-12-31T03:49:43.837Z,1.13
2022-12-31T03:52:32.295Z,1.13
2022-12-31T03:55:22.142Z,1.20
2022-12-31T03:58:10.565Z,1.20
2022-12-31T04:00:59.064Z,1.10
2022-12-31T04:03:47.608Z,1.40
2022-12-31T04:06:36.100Z,1.20
2022-12-31T04:09:24.582Z,1.00
2022-12-31T04:12:14.421Z,1.10
2022-12-31T04:15:02.980Z,1.30
2022-12-31T04:17:51.394Z,1.10
2022-12-31T04:20:39.869Z,1.00
2022-12-31T04:23:28.323Z,1.17
2022-12-31T04:26:16.823Z,1.20
2022-12-31T04:29:07.037Z,1.00
2022-12-31T04:31:55.528Z,1.40
2022-12-31T04:34:43.990Z,1.30
2022-12-31T04:37:32.465Z,1.00
2022-12-31T04:40:21.021Z,1.13
2022-12-31T04:43:09.525Z,1.20
2022-12-31T04:45:59.532Z,1.20
2022-12-31T04:48:48.007Z,1.20
2022-12-31T04:51:36.849Z,1.20
2022-12-31T04:54:25.418Z,1.10
2022-12-31T04:57:13.915Z,1.17
2022-12-31T05:00:02.396Z,1.10
2022-12-31T05:02:52.332Z,1.10
2022-12-31T05:05:42.738Z,1.13
2022-12-31T05:08:31.195Z,1.00
2022-12-31T05:11:19.674Z,1.27
2022-12-31T05:14:08.095Z,1.10
2022-12-31T05:16:58.208Z,0.90
2022-12-31T05:19:48.011Z,1.13
2022-12-31T05:22:36.455Z,1.13
2022-12-31T05:25:24.973Z,1.43
2022-12-31T05:28:13.824Z,1.30
2022-12-31T05:31:02.348Z,1.20
2022-12-31T05:33:50.797Z,1.00
2022-12-31T05:36:40.584Z,0.93
2022-12-31T05:39:29.043Z,1.30
2022-12-31T05:42:17.520Z,0.90
2022-12-31T05:45:07.086Z,1.20
2022-12-31T05:47:55.570Z,1.10
2022-12-31T05:50:44.019Z,1.00
2022-12-31T05:53:34.493Z,1.00
2022-12-31T05:56:22.965Z,1.00
2022-12-31T05:59:11.414Z,1.00
2022-12-31T06:01:59.870Z,1.30
2022-12-31T06:04:48.467Z,1.00
2022-12-31T06:07:36.936Z,1.10
2022-12-31T06:10:26.768Z,1.10
2022-12-31T06:13:15.244Z,1.10
2022-12-31T06:16:06.493Z,1.10
2022-12-31T06:18:55.078Z,1.40
2022-12-31T06:21:43.548Z,1.20
2022-12-31T06:24:32.001Z,1.20
2022-12-31T06:27:21.905Z,1.50
2022-12-31T06:30:12.039Z,1.20
2022-12-31T06:33:00.485Z,1.10
2022-12-31T06:35:48.922Z,1.20
2022-12-31T06:38:39.203Z,1.10
2022-12-31T06:41:27.681Z,1.17
2022-12-31T06:44:17.701Z,1.27
2022-12-31T06:47:08.917Z,1.13
2022-12-31T06:49:57.620Z,1.20
2022-12-31T06:52:46.174Z,1.10
2022-12-31T06:55:35.078Z,1.30
2022-12-31T06:58:24.256Z,1.20
2022-12-31T07:01:38.484Z,1.13
2022-12-31T07:04:49.917Z,1.30
2022-12-31T07:07:47.121Z,1.23
2022-12-31T07:10:43.955Z,1.30
2022-12-31T07:13:54.657Z,1.20
2022-12-31T07:16:52.421Z,1.30
2022-12-31T07:19:51.117Z,1.23
2022-12-31T07:22:44.574Z,1.50
2022-12-31T07:25:33.833Z,1.50
2022-12-31T07:28:33.554Z,1.40
2022-12-31T07:31:31.518Z,1.40
2022-12-31T07:34:26.264Z,1.43
2022-12-31T07:37:18.839Z,1.30
2022-12-31T07:40:16.203Z,1.20
2022-12-31T07:43:08.733Z,1.37
2022-12-31T07:46:07.884Z,1.30
2022-12-31T07:48:56.958Z,1.23
2022-12-31T07:51:47.303Z,1.10
2022-12-31T07:54:35.782Z,1.43
2022-12-31T07:57:28.012Z,1.13
2022-12-31T08:00:17.023Z,1.20
2022-12-31T08:03:13.409Z,1.57
2022-12-31T08:06:11.340Z,1.30
2022-12-31T08:09:05.184Z,1.57
2022-12-31T08:11:57.371Z,1.60
2022-12-31T08:14:47.329Z,1.43
2022-12-31T08:17:36.092Z,1.87
2022-12-31T08:20:24.626Z,1.60
2022-12-31T08:23:23.066Z,1.40
2022-12-31T08:26:26.915Z,1.30
2022-12-31T08:29:26.903Z,1.30
2022-12-31T08:32:20.019Z,1.30
2022-12-31T08:35:17.845Z,1.33
2022-12-31T08:38:24.402Z,1.50
2022-12-31T08:41:19.433Z,1.53
2022-12-31T08:44:14.295Z,1.40
2022-12-31T08:47:10.392Z,1.30
2022-12-31T08:49:59.432Z,1.30
2022-12-31T08:52:49.297Z,1.27
2022-12-31T08:55:38.318Z,1.70
2022-12-31T08:58:35.558Z,1.57
2022-12-31T09:01:29.104Z,1.30
2022-12-31T09:04:21.929Z,1.27
2022-12-31T09:07:11.904Z,1.20
2022-12-31T09:10:05.710Z,1.27
2022-12-31T09:13:00.145Z,1.20
2022-12-31T09:15:54.619Z,1.50
2022-12-31T09:18:44.510Z,1.13
2022-12-31T09:21:33.498Z,1.30
2022-12-31T09:24:22.523Z,1.30
2022-12-31T09:27:18.279Z,1.20
2022-12-31T09:30:10.390Z,1.47
2022-12-31T09:33:03.740Z,1.40
2022-12-31T09:35:56.273Z,1.30
2022-12-31T09:38:52.362Z,1.27
2022-12-31T09:42:14.915Z,1.23
2022-12-31T09:45:27.307Z,1.30
2022-12-31T09:48:50.160Z,1.20
2022-12-31T09:51:46.114Z,1.10
2022-12-31T09:54:44.810Z,1.30
2022-12-31T09:57:40.392Z,1.17
2022-12-31T10:00:34.936Z,1.53
2022-12-31T10:03:58.121Z,1.40
2022-12-31T10:06:54.852Z,1.30
2022-12-31T10:09:54.565Z,1.30
2022-12-31T10:13:20.119Z,1.20
2022-12-31T10:16:20.638Z,1.57
2022-12-31T10:19:44.592Z,1.50
2022-12-31T10:22:47.123Z,1.40
2022-12-31T10:26:01.201Z,1.23
2022-12-31T10:28:55.889Z,1.77
2022-12-31T10:31:49.958Z,1.40
2022-12-31T10:34:53.581Z,1.33
2022-12-31T10:37:47.640Z,1.40
2022-12-31T10:40:51.314Z,1.20
2022-12-31T10:44:13.550Z,1.13
2022-12-31T10:47:29.121Z,1.47
2022-12-31T10:50:40.428Z,1.60
2022-12-31T10:53:53.972Z,1.40
2022-12-31T10:57:20.417Z,1.23
2022-12-31T11:00:20.017Z,1.47
2022-12-31T11:03:46.060Z,1.57
2022-12-31T11:06:54.723Z,1.40
2022-12-31T11:10:01.070Z,1.27
2022-12-31T11:13:16.178Z,1.17
2022-12-31T11:16:15.873Z,1.90
2022-12-31T11:19:11.064Z,1.43
2022-12-31T11:22:17.643Z,2.30
2022-12-31T11:25:24.133Z,1.67
2022-12-31T11:28:36.061Z,1.30
2022-12-31T11:31:34.031Z,1.50
2022-12-31T11:34:50.311Z,1.20
2022-12-31T11:37:45.896Z,1.60
2022-12-31T11:40:42.948Z,1.40
2022-12-31T11:43:38.796Z,1.20
2022-12-31T11:46:46.685Z,1.73
2022-12-31T11:49:55.747Z,1.33
2022-12-31T11:52:55.819Z,1.17
2022-12-31T11:55:53.770Z,1.50
2022-12-31T11:58:46.021Z,1.40
2022-12-31T12:01:40.392Z,1.50
2022-12-31T12:04:29.500Z,1.43
2022-12-31T12:07:20.271Z,1.43
2022-12-31T12:10:20.711Z,1.30
2022-12-31T12:13:21.698Z,1.10
2022-12-31T12:16:11.181Z,1.20
2022-12-31T12:19:05.232Z,1.87
2022-12-31T12:21:54.408Z,1.20
2022-12-31T12:24:53.632Z,1.00
2022-12-31T12:27:42.249Z,1.07
2022-12-31T12:30:41.223Z,1.10
2022-12-31T12:33:31.496Z,1.30
2022-12-31T12:36:21.513Z,1.77
2022-12-31T12:39:21.533Z,1.20
2022-12-31T12:42:14.083Z,1.00
2022-12-31T12:45:05.128Z,1.40
2022-12-31T12:47:57.718Z,1.30
2022-12-31T12:50:47.755Z,1.37
2022-12-31T12:53:46.095Z,1.20
2022-12-31T12:56:39.995Z,1.30
2022-12-31T12:59:48.654Z,1.30
2022-12-31T13:03:02.998Z,1.00
2022-12-31T13:06:00.460Z,1.33
2022-12-31T13:09:01.300Z,1.20
2022-12-31T13:12:07.162Z,0.90
2022-12-31T13:15:00.119Z,1.17
2022-12-31T13:18:01.640Z,1.10
2022-12-31T13:20:56.596Z,1.20
2022-12-31T13:23:49.843Z,1.03
2022-12-31T13:26:42.282Z,0.90
2022-12-31T13:29:32.424Z,1.00
2022-12-31T13:32:23.095Z,0.97
2022-12-31T13:35:23.331Z,1.17
2022-12-31T13:38:16.279Z,1.30
2022-12-31T13:41:08.959Z,1.00
2022-12-31T13:44:01.874Z,0.93
2022-12-31T13:46:53.463Z,0.80
2022-12-31T13:49:45.627Z,0.90
2022-12-31T13:52:38.562Z,1.17
2022-12-31T13:55:33.294Z,1.27
2022-12-31T13:58:32.533Z,1.10
2022-12-31T14:01:27.209Z,1.30
2022-12-31T14:04:22.255Z,1.10
2022-12-31T14:07:13.625Z,1.20
2022-12-31T14:10:02.207Z,1.00
2022-12-31T14:12:57.600Z,1.07
2022-12-31T14:15:49.447Z,1.10
2022-12-31T14:18:44.859Z,1.10
2022-12-31T14:21:39.885Z,1.40
2022-12-31T14:24:38.117Z,1.10
2022-12-31T14:27:30.217Z,1.50
2022-12-31T14:30:22.316Z,1.10
2022-12-31T14:33:28.951Z,1.07
2022-12-31T14:36:25.066Z,1.10
2022-12-31T14:39:30.263Z,1.20
2022-12-31T14:42:24.994Z,1.50
2022-12-31T14:45:31.815Z,1.30
2022-12-31T14:48:30.342Z,1.50
2022-12-31T14:51:18.849Z,1.07
2022-12-31T14:54:29.265Z,1.00
2022-12-31T14:57:24.756Z,1.00
2022-12-31T15:00:27.226Z,2.30
2022-12-31T15:03:25.562Z,1.30
2022-12-31T15:06:42.717Z,1.40
2022-12-31T15:09:49.662Z,1.30
2022-12-31T15:12:49.727Z,1.27
2022-12-31T15:15:53.099Z,1.10
2022-12-31T15:18:58.863Z,1.20
2022-12-31T15:21:56.161Z,1.10
2022-12-31T15:24:45.663Z,1.20
2022-12-31T15:27:37.022Z,1.50
2022-12-31T15:30:35.949Z,1.13
2022-12-31T15:33:31.070Z,1.10
2022-12-31T15:36:22.036Z,1.03
2022-12-31T15:39:29.138Z,1.50
2022-12-31T15:42:39.856Z,1.10
2022-12-31T15:45:34.242Z,1.27
2022-12-31T15:48:28.212Z,1.17
2022-12-31T15:51:19.114Z,1.50
2022-12-31T15:54:09.165Z,1.20
2022-12-31T15:56:58.053Z,1.20
2022-12-31T15:59:47.392Z,1.37
2022-12-31T16:02:39.104Z,1.40
2022-12-31T16:05:29.223Z,1.30
2022-12-31T16:08:21.372Z,1.13
2022-12-31T16:11:10.499Z,1.20
2022-12-31T16:14:00.591Z,1.13
2022-12-31T16:16:57.194Z,1.40
2022-12-31T16:19:47.115Z,1.33
2022-12-31T16:22:40.005Z,1.57
2022-12-31T16:25:31.582Z,1.40
2022-12-31T16:28:29.732Z,2.10
2022-12-31T16:31:19.958Z,1.80
2022-12-31T16:34:13.545Z,3.73
2022-12-31T16:37:04.213Z,2.63
2022-12-31T16:40:19.863Z,2.60
2022-12-31T16:43:26.893Z,3.03
2022-12-31T16:46:20.471Z,3.40
2022-12-31T16:49:16.963Z,3.43
2022-12-31T16:52:07.828Z,3.43
2022-12-31T16:54:56.984Z,2.87
2022-12-31T16:57:48.767Z,2.20
2022-12-31T17:00:37.648Z,2.40
2022-12-31T17:03:28.703Z,2.37
2022-12-31T17:06:18.251Z,2.90
2022-12-31T17:09:13.933Z,2.50
2022-12-31T17:12:15.693Z,3.13
2022-12-31T17:15:07.760Z,2.60
2022-12-31T17:17:58.219Z,4.60
2022-12-31T17:20:47.267Z,5.00
2022-12-31T17:23:36.789Z,3.53
2022-12-31T17:26:27.942Z,3.17
2022-12-31T17:29:26.092Z,5.03
2022-12-31T17:32:30.818Z,3.27
2022-12-31T17:35:28.926Z,2.83
2022-12-31T17:38:31.752Z,3.23
2022-12-31T17:41:25.422Z,2.63
2022-12-31T17:44:18.831Z,4.77
2022-12-31T17:47:08.748Z,2.60
2022-12-31T17:49:58.584Z,4.03
2022-12-31T17:52:47.306Z,2.80
2022-12-31T17:55:35.909Z,2.73
2022-12-31T17:58:29.607Z,3.30
2022-12-31T18:01:20.881Z,2.73
2022-12-31T18:04:12.430Z,2.87
2022-12-31T18:07:02.291Z,3.27
2022-12-31T18:09:50.835Z,4.77
2022-12-31T18:12:39.966Z,5.40
2022-12-31T18:15:28.540Z,5.37
2022-12-31T18:18:25.307Z,7.87
2022-12-31T18:21:17.841Z,7.73
2022-12-31T18:24:10.313Z,6.57
2022-12-31T18:26:58.810Z,6.10
2022-12-31T18:29:48.615Z,10.93
2022-12-31T18:32:37.949Z,11.97
2022-12-31T18:35:58.140Z,11.53
2022-12-31T18:38:34.769Z,12.93
2022-12-31T18:41:27.635Z,16.10
2022-12-31T18:44:16.672Z,16.30
2022-12-31T18:47:07.010Z,19.23
2022-12-31T18:49:55.573Z,22.00
2022-12-31T18:52:44.666Z,23.90
2022-12-31T18:55:36.987Z,26.50
2022-12-31T18:58:26.869Z,26.90
2022-12-31T19:01:27.133Z,26.43
2022-12-31T19:04:22.886Z,31.80
2022-12-31T19:07:15.387Z,30.00
2022-12-31T19:10:03.943Z,27.93
2022-12-31T19:12:52.568Z,26.97
2022-12-31T19:15:44.652Z,29.30
2022-12-31T19:18:33.060Z,26.23
2022-12-31T19:21:23.751Z,28.37
2022-12-31T19:24:13.850Z,29.43
2022-12-31T19:27:02.957Z,28.80
2022-12-31T19:29:51.908Z,26.77
2022-12-31T19:32:41.814Z,29.20
2022-12-31T19:35:30.284Z,31.93
2022-12-31T19:38:21.543Z,30.40
2022-12-31T19:41:15.295Z,22.80
2022-12-31T19:44:03.748Z,24.70
2022-12-31T19:46:52.199Z,27.47
2022-12-31T19:49:42.063Z,27.17
2022-12-31T19:52:30.606Z,28.83
2022-12-31T19:55:21.052Z,30.37
2022-12-31T19:58:11.379Z,31.23
2022-12-31T20:01:03.105Z,33.07
2022-12-31T20:03:52.327Z,31.10
2022-12-31T20:06:42.100Z,33.13
2022-12-31T20:09:30.625Z,33.10
2022-12-31T20:12:19.073Z,33.10
2022-12-31T20:15:08.947Z,34.47
2022-12-31T20:17:58.440Z,32.93
2022-12-31T20:20:53.428Z,35.13
2022-12-31T20:23:45.734Z,32.30
2022-12-31T20:26:34.199Z,33.13
2022-12-31T20:29:22.670Z,32.57
2022-12-31T20:32:11.260Z,35.47
2022-12-31T20:34:59.821Z,37.57
2022-12-31T20:37:51.010Z,36.37
2022-12-31T20:40:46.459Z,42.57
2022-12-31T20:43:35.912Z,50.50
2022-12-31T20:46:25.638Z,50.20
2022-12-31T20:49:14.143Z,44.97
2022-12-31T20:52:04.306Z,49.77
2022-12-31T20:54:52.726Z,44.63
2022-12-31T20:57:42.603Z,51.10
2022-12-31T21:00:31.086Z,62.07
2022-12-31T21:04:02.314Z,59.90
2022-12-31T21:06:28.627Z,75.27
2022-12-31T21:09:17.134Z,80.90
2022-12-31T21:12:27.101Z,75.90
2022-12-31T21:15:17.063Z,73.70
2022-12-31T21:18:05.622Z,77.23
2022-12-31T21:20:54.123Z,76.67
2022-12-31T21:23:42.636Z,68.17
2022-12-31T21:26:31.626Z,85.37
2022-12-31T21:29:20.086Z,80.00
2022-12-31T21:32:10.003Z,75.20
2022-12-31T21:35:31.470Z,71.97
2022-12-31T21:38:08.497Z,65.80
2022-12-31T21:41:01.870Z,69.70
2022-12-31T21:43:50.401Z,74.10
2022-12-31T21:46:40.732Z,58.43
2022-12-31T21:49:39.376Z,67.30
2022-12-31T21:52:28.362Z,62.10
2022-12-31T21:55:34.383Z,59.13
2022-12-31T21:58:27.776Z,43.60
2022-12-31T22:01:36.026Z,54.60
2022-12-31T22:05:00.418Z,23.27
2022-12-31T22:07:35.076Z,21.80
2022-12-31T22:10:23.573Z,26.40
2022-12-31T22:13:12.249Z,23.33
2022-12-31T22:16:05.421Z,18.13
2022-12-31T22:18:56.069Z,20.77
2022-12-31T22:21:44.564Z,15.60
2022-12-31T22:24:34.410Z,17.40
2022-12-31T22:27:28.797Z,17.03
2022-12-31T22:30:18.640Z,13.40
2022-12-31T22:33:07.150Z,11.30
2022-12-31T22:36:00.355Z,11.03
2022-12-31T22:38:49.400Z,10.70
2022-12-31T22:41:41.487Z,9.00
2022-12-31T22:44:29.997Z,7.63
2022-12-31T22:47:18.522Z,9.60
2022-12-31T22:50:08.181Z,6.73
2022-12-31T22:52:56.693Z,7.97
2022-12-31T22:55:45.186Z,9.10
2022-12-31T22:58:35.181Z,10.50
2022-12-31T23:01:25.010Z,26.33
2022-12-31T23:04:13.765Z,48.47
2022-12-31T23:07:02.301Z,159.10
2022-12-31T23:10:08.400Z,142.20
2022-12-31T23:12:56.829Z,185.30
2022-12-31T23:16:04.765Z,275.00
2022-12-31T23:19:11.075Z,177.73
2022-12-31T23:22:17.521Z,152.73
2022-12-31T23:25:06.793Z,129.10
2022-12-31T23:27:55.337Z,120.67
2022-12-31T23:30:44.653Z,123.73
2022-12-31T23:33:34.459Z,54.00
2022-12-31T23:36:23.079Z,56.10
2022-12-31T23:39:12.787Z,41.00
2022-12-31T23:42:01.564Z,34.30
2022-12-31T23:44:50.048Z,45.13
2022-12-31T23:47:39.142Z,37.10
2022-12-31T23:50:29.028Z,33.10
2022-12-31T23:53:17.492Z,35.17
2022-12-31T23:56:12.219Z,44.37
2022-12-31T23:59:03.478Z,29.80
